Time;durP1;ratioP1;P1;durP2;ratioP2;P2;SDS_P1;SDS_P2;PMS_P1;PMS_P2;Temp;Humidity;BMP_temperature;BMP_pressure;BME280_temperature;BME280_humidity;BME280_pressure;Samples;Min_cycle;Max_cycle;Signal;HPM_P1;HPM_P2
2024/01/16 00:02:07;;;;;;;2.38;1.20;;;13.90;40.30;;;;;;5152569;27;44595;-52
2024/01/16 00:04:36;;;;;;;2.33;1.25;;;13.90;40.40;;;;;;5155348;27;45193;-52
2024/01/16 00:07:03;;;;;;;2.35;1.35;;;13.90;40.50;;;;;;5152941;27;45104;-52
2024/01/16 00:09:33;;;;;;;2.15;1.20;;;13.90;40.50;;;;;;5153083;27;47072;-52
2024/01/16 00:12:00;;;;;;;2.85;1.30;;;13.80;40.30;;;;;;5150842;27;45406;-52
2024/01/16 00:14:27;;;;;;;1.92;1.50;;;13.80;40.30;;;;;;5153325;27;45668;-52
2024/01/16 00:16:54;;;;;;;2.40;1.42;;;13.90;40.50;;;;;;5151158;27;45173;-51
2024/01/16 00:19:22;;;;;;;3.45;1.63;;;13.90;40.30;;;;;;5151480;27;46255;-51
2024/01/16 00:21:49;;;;;;;4.55;1.50;;;13.80;40.40;;;;;;5157474;27;45360;-52
2024/01/16 00:24:17;;;;;;;3.50;1.63;;;13.80;40.30;;;;;;5154775;27;45368;-51
2024/01/16 00:26:44;;;;;;;3.42;1.80;;;13.90;40.30;;;;;;5153243;27;45474;-52
2024/01/16 00:29:12;;;;;;;3.40;1.92;;;13.90;41.00;;;;;;5152558;27;45408;-52
2024/01/16 00:31:38;;;;;;;3.00;1.77;;;13.90;41.40;;;;;;5152070;27;45254;-52
2024/01/16 00:34:05;;;;;;;2.25;1.50;;;13.90;41.10;;;;;;5156037;27;45440;-52
2024/01/16 00:36:33;;;;;;;4.57;1.80;;;13.90;41.10;;;;;;5151729;27;45164;-52
2024/01/16 00:39:00;;;;;;;4.63;1.90;;;13.90;41.00;;;;;;5151529;27;45535;-54
2024/01/16 00:41:27;;;;;;;5.57;2.08;;;13.90;40.90;;;;;;5153578;27;45152;-52
2024/01/16 00:43:54;;;;;;;4.40;1.88;;;13.90;40.80;;;;;;5153517;27;45334;-52
2024/01/16 00:46:21;;;;;;;4.05;2.00;;;13.90;40.70;;;;;;5155721;27;45414;-52
2024/01/16 00:48:48;;;;;;;4.25;1.85;;;13.90;40.70;;;;;;5153109;27;47668;-52
2024/01/16 00:51:15;;;;;;;5.07;2.17;;;13.90;40.60;;;;;;5151815;27;45254;-52
2024/01/16 00:53:43;;;;;;;3.47;1.80;;;13.90;40.60;;;;;;5155139;27;45165;-52
2024/01/16 00:56:12;;;;;;;3.65;1.85;;;13.90;40.40;;;;;;5151444;27;45171;-52
2024/01/16 00:58:39;;;;;;;3.55;2.03;;;13.90;40.50;;;;;;5149701;27;47877;-52
2024/01/16 01:01:05;;;;;;;3.97;1.85;;;13.80;40.40;;;;;;5154904;27;45566;-52
2024/01/16 01:03:32;;;;;;;4.90;2.00;;;13.80;40.50;;;;;;5154776;27;45171;-52
2024/01/16 01:06:01;;;;;;;3.40;2.17;;;13.90;40.40;;;;;;5150557;27;45184;-52
2024/01/16 01:08:27;;;;;;;3.28;1.70;;;13.90;40.60;;;;;;5150651;27;46542;-52
2024/01/16 01:10:55;;;;;;;4.00;1.83;;;13.90;40.40;;;;;;5152287;27;45053;-51
2024/01/16 01:13:24;;;;;;;4.32;1.88;;;13.80;40.30;;;;;;5151857;27;45217;-51
2024/01/16 01:15:51;;;;;;;4.20;1.70;;;13.80;40.30;;;;;;5151793;27;45362;-52
2024/01/16 01:18:18;;;;;;;4.05;2.00;;;13.80;40.30;;;;;;5151011;27;45414;-52
2024/01/16 01:20:45;;;;;;;2.28;1.65;;;13.80;40.30;;;;;;5152245;27;45260;-52
2024/01/16 01:23:12;;;;;;;4.05;2.00;;;13.90;40.40;;;;;;5148798;27;45210;-52
2024/01/16 01:25:38;;;;;;;4.38;1.60;;;13.90;40.30;;;;;;5151066;27;45268;-51
2024/01/16 01:28:07;;;;;;;3.17;1.73;;;13.90;40.30;;;;;;5153150;27;46238;-51
2024/01/16 01:30:34;;;;;;;4.10;1.73;;;13.80;40.30;;;;;;5148269;27;45948;-51
2024/01/16 01:33:00;;;;;;;2.95;1.65;;;13.90;40.30;;;;;;5151059;27;45140;-51
2024/01/16 01:35:27;;;;;;;4.00;1.50;;;13.90;40.30;;;;;;5154317;27;45538;-51
2024/01/16 01:37:54;;;;;;;2.53;1.48;;;13.90;40.20;;;;;;5150350;27;45374;-51
2024/01/16 01:40:21;;;;;;;5.95;1.70;;;14.00;40.20;;;;;;5153770;27;45208;-51
2024/01/16 01:42:48;;;;;;;4.45;1.50;;;13.90;40.20;;;;;;5152919;27;44739;-51
2024/01/16 01:45:16;;;;;;;3.38;1.50;;;13.90;40.20;;;;;;5155103;27;45674;-51
2024/01/16 01:47:43;;;;;;;2.63;1.50;;;14.00;40.20;;;;;;5152680;27;46529;-51
2024/01/16 01:50:10;;;;;;;3.80;1.58;;;14.00;40.10;;;;;;5150703;27;45134;-51
2024/01/16 01:52:39;;;;;;;2.85;1.27;;;13.90;40.10;;;;;;5155605;27;45176;-51
2024/01/16 01:55:09;;;;;;;4.20;1.75;;;13.80;40.10;;;;;;5150050;27;45267;-51
2024/01/16 01:57:36;;;;;;;2.35;1.48;;;13.90;40.30;;;;;;5150195;27;46104;-51
2024/01/16 02:00:04;;;;;;;2.78;1.50;;;13.80;40.20;;;;;;5151361;27;45244;-52
2024/01/16 02:02:33;;;;;;;4.75;1.75;;;13.90;40.30;;;;;;5149937;27;45215;-52
2024/01/16 02:05:00;;;;;;;4.35;1.92;;;13.90;40.30;;;;;;5153770;27;45487;-51
2024/01/16 02:07:27;;;;;;;4.00;1.75;;;13.80;40.20;;;;;;5150551;27;45438;-52
2024/01/16 02:09:55;;;;;;;3.67;1.30;;;13.90;40.20;;;;;;5153893;27;45167;-52
2024/01/16 02:12:21;;;;;;;3.55;1.55;;;13.90;40.30;;;;;;5150513;27;44756;-52
2024/01/16 02:14:48;;;;;;;4.40;1.30;;;13.90;40.20;;;;;;5151515;27;44660;-52
2024/01/16 02:17:15;;;;;;;4.18;1.67;;;13.80;40.00;;;;;;5151508;27;45596;-52
2024/01/16 02:19:43;;;;;;;7.43;1.83;;;13.90;40.20;;;;;;5153275;27;45212;-52
2024/01/16 02:22:16;;;;;;;2.75;1.52;;;13.80;40.10;;;;;;5151060;27;45230;-51
2024/01/16 02:24:45;;;;;;;5.47;1.77;;;13.80;40.20;;;;;;5150987;27;45215;-52
2024/01/16 02:27:12;;;;;;;4.55;1.63;;;13.90;40.20;;;;;;5150934;27;47103;-52
2024/01/16 02:29:42;;;;;;;3.33;1.45;;;13.80;41.20;;;;;;5152647;27;45334;-52
2024/01/16 02:32:09;;;;;;;5.60;1.50;;;13.90;40.20;;;;;;5151063;27;45404;-52
2024/01/16 02:34:36;;;;;;;3.63;1.58;;;14.00;40.70;;;;;;5148977;27;45438;-52
2024/01/16 02:37:04;;;;;;;3.55;1.45;;;14.00;41.00;;;;;;5149528;27;46171;-52
2024/01/16 02:39:30;;;;;;;2.20;1.17;;;14.00;40.50;;;;;;5149655;27;45206;-52
2024/01/16 02:41:59;;;;;;;2.78;1.40;;;14.00;40.40;;;;;;5153450;27;44795;-52
2024/01/16 02:44:25;;;;;;;4.85;1.80;;;14.00;40.50;;;;;;5152977;27;45800;-52
2024/01/16 02:46:52;;;;;;;4.25;1.30;;;13.90;40.30;;;;;;5150951;27;45328;-52
2024/01/16 02:49:19;;;;;;;5.88;1.58;;;13.90;41.30;;;;;;5151830;27;45232;-52
2024/01/16 02:51:46;;;;;;;3.75;1.52;;;13.80;40.50;;;;;;5151721;27;45183;-52
2024/01/16 02:54:13;;;;;;;4.07;1.42;;;13.80;40.40;;;;;;5150179;27;45213;-52
2024/01/16 02:56:40;;;;;;;3.97;1.50;;;13.80;40.30;;;;;;5150680;27;46625;-52
2024/01/16 02:59:08;;;;;;;3.53;1.50;;;13.80;40.30;;;;;;5149541;27;45133;-52
2024/01/16 03:01:34;;;;;;;3.90;1.70;;;13.80;41.50;;;;;;5150732;27;45144;-52
2024/01/16 03:04:01;;;;;;;3.72;1.38;;;13.80;40.30;;;;;;5151384;27;44717;-52
2024/01/16 03:06:29;;;;;;;3.55;2.00;;;13.80;40.30;;;;;;5151176;27;46189;-52
2024/01/16 03:08:55;;;;;;;4.03;1.35;;;13.80;40.20;;;;;;5149880;27;45142;-52
2024/01/16 03:11:22;;;;;;;4.47;1.50;;;13.80;40.20;;;;;;5152668;27;45285;-52
2024/01/16 03:13:52;;;;;;;5.60;1.67;;;13.80;40.20;;;;;;5152280;27;45243;-52
2024/01/16 03:16:20;;;;;;;3.15;1.30;;;13.90;40.20;;;;;;5151313;27;47873;-52
2024/01/16 03:18:47;;;;;;;1.95;1.13;;;13.80;40.10;;;;;;5151609;27;45321;-52
2024/01/16 03:21:15;;;;;;;2.28;1.30;;;13.80;40.10;;;;;;5149083;27;45250;-52
2024/01/16 03:23:41;;;;;;;3.03;1.35;;;13.90;40.10;;;;;;5147943;27;45457;-52
2024/01/16 03:26:13;;;;;;;3.05;1.50;;;13.90;40.00;;;;;;5148027;27;47466;-52
2024/01/16 03:28:40;;;;;;;1.90;1.30;;;13.90;40.00;;;;;;5150958;27;45334;-52
2024/01/16 03:31:07;;;;;;;2.42;1.02;;;13.90;40.00;;;;;;5149227;27;45286;-52
2024/01/16 03:33:41;;;;;;;3.40;1.48;;;14.00;40.00;;;;;;5148327;27;45109;-52
2024/01/16 03:36:09;;;;;;;4.07;1.42;;;13.90;39.80;;;;;;5148356;27;47202;-52
2024/01/16 03:38:36;;;;;;;2.33;1.20;;;13.90;39.80;;;;;;5148433;27;45220;-52
2024/01/16 03:41:03;;;;;;;1.85;1.10;;;13.90;39.80;;;;;;5150692;27;45206;-52
2024/01/16 03:43:30;;;;;;;1.95;1.20;;;13.90;39.90;;;;;;5150928;27;45213;-52
2024/01/16 03:45:58;;;;;;;3.85;1.60;;;13.90;40.00;;;;;;5147991;27;46996;-52
2024/01/16 03:48:25;;;;;;;3.05;1.52;;;13.80;40.00;;;;;;5151432;27;44858;-52
2024/01/16 03:50:54;;;;;;;2.83;1.33;;;13.80;39.90;;;;;;5150189;27;45250;-52
2024/01/16 03:53:21;;;;;;;3.40;1.23;;;13.80;39.90;;;;;;5149533;27;45444;-52
2024/01/16 03:55:48;;;;;;;3.65;1.25;;;13.80;39.90;;;;;;5149103;27;45188;-52
2024/01/16 03:58:14;;;;;;;2.72;1.27;;;13.80;39.80;;;;;;5152457;27;44687;-52
2024/01/16 04:00:41;;;;;;;2.85;1.20;;;13.80;41.00;;;;;;5153199;27;45141;-52
2024/01/16 04:03:08;;;;;;;2.50;1.40;;;13.90;39.90;;;;;;5148302;27;45428;-52
2024/01/16 04:05:35;;;;;;;2.25;1.13;;;13.80;39.70;;;;;;5149275;27;48736;-52
2024/01/16 04:08:04;;;;;;;2.83;1.27;;;13.80;39.70;;;;;;5149618;27;44655;-52
2024/01/16 04:10:31;;;;;;;1.65;0.98;;;13.90;39.80;;;;;;5148985;27;45133;-52
2024/01/16 04:13:01;;;;;;;2.63;0.90;;;13.90;39.80;;;;;;5148858;27;45289;-52
2024/01/16 04:15:28;;;;;;;1.70;1.10;;;13.80;39.60;;;;;;5156606;27;47471;-52
2024/01/16 04:17:55;;;;;;;2.45;1.45;;;13.90;39.80;;;;;;5151317;27;45948;-52
2024/01/16 04:20:22;;;;;;;1.85;1.02;;;13.80;39.50;;;;;;5152238;27;45314;-52
2024/01/16 04:22:48;;;;;;;4.40;1.40;;;13.90;39.60;;;;;;5153226;27;45281;-52
2024/01/16 04:25:16;;;;;;;2.83;1.58;;;13.90;39.50;;;;;;5155532;27;46562;-52
2024/01/16 04:27:43;;;;;;;3.22;1.73;;;13.90;39.50;;;;;;5154526;27;44953;-52
2024/01/16 04:30:10;;;;;;;1.77;1.10;;;13.90;39.60;;;;;;5152514;27;45143;-52
2024/01/16 04:32:38;;;;;;;3.00;1.50;;;13.90;39.40;;;;;;5150846;27;45304;-52
2024/01/16 04:35:05;;;;;;;2.67;1.33;;;14.00;39.40;;;;;;5153299;27;45290;-53
2024/01/16 04:37:32;;;;;;;5.05;1.35;;;14.00;39.70;;;;;;5150198;27;44871;-53
2024/01/16 04:39:59;;;;;;;4.47;1.70;;;13.90;39.70;;;;;;5151204;27;45153;-52
2024/01/16 04:42:27;;;;;;;3.65;1.58;;;13.90;40.10;;;;;;5155221;27;44854;-52
2024/01/16 04:44:54;;;;;;;3.47;1.55;;;13.80;39.90;;;;;;5150928;27;46214;-52
2024/01/16 04:47:21;;;;;;;6.25;2.17;;;13.90;40.20;;;;;;5149462;27;45168;-52
2024/01/16 04:49:48;;;;;;;4.53;1.80;;;13.80;40.20;;;;;;5154430;27;45428;-52
2024/01/16 04:52:15;;;;;;;4.22;1.50;;;13.80;40.20;;;;;;5152614;27;44878;-53
2024/01/16 04:54:42;;;;;;;2.80;1.40;;;13.80;40.00;;;;;;5153504;27;45362;-53
2024/01/16 04:57:08;;;;;;;4.22;1.80;;;13.80;40.00;;;;;;5152459;27;45219;-52
2024/01/16 04:59:37;;;;;;;5.03;1.92;;;13.80;39.90;;;;;;5151379;27;45224;-52
2024/01/16 05:02:03;;;;;;;3.60;1.60;;;13.80;39.80;;;;;;5152401;27;45235;-52
2024/01/16 05:04:30;;;;;;;3.78;1.90;;;13.80;39.70;;;;;;5155671;27;45198;-52
2024/01/16 05:06:57;;;;;;;3.30;1.60;;;13.80;39.70;;;;;;5150856;27;45191;-51
2024/01/16 05:09:24;;;;;;;7.53;2.00;;;13.80;39.60;;;;;;5150859;27;45339;-52
2024/01/16 05:11:50;;;;;;;3.17;1.88;;;13.90;39.60;;;;;;5152797;27;45166;-52
2024/01/16 05:14:17;;;;;;;3.20;1.75;;;13.80;39.40;;;;;;5154844;27;46147;-52
2024/01/16 05:16:45;;;;;;;3.55;1.65;;;13.90;39.40;;;;;;5153917;27;44736;-52
2024/01/16 05:19:12;;;;;;;5.50;1.75;;;13.90;39.30;;;;;;5150790;27;45198;-52
2024/01/16 05:21:41;;;;;;;5.50;1.90;;;13.90;39.20;;;;;;5152331;27;45184;-52
2024/01/16 05:24:09;;;;;;;5.50;1.90;;;13.90;39.10;;;;;;5150731;27;47022;-51
2024/01/16 05:26:36;;;;;;;3.22;1.58;;;13.90;39.00;;;;;;5153474;27;45371;-52
2024/01/16 05:29:02;;;;;;;3.47;1.55;;;14.00;39.10;;;;;;5152471;27;45233;-51
2024/01/16 05:31:29;;;;;;;3.58;1.70;;;14.00;39.00;;;;;;5151269;27;45596;-52
2024/01/16 05:33:57;;;;;;;2.85;1.65;;;13.90;38.80;;;;;;5151940;27;47925;-52
2024/01/16 05:36:24;;;;;;;5.38;1.73;;;13.80;38.90;;;;;;5149300;27;45234;-52
2024/01/16 05:38:53;;;;;;;2.92;1.55;;;13.80;39.00;;;;;;5151034;27;45212;-51
2024/01/16 05:41:20;;;;;;;4.25;1.70;;;13.80;38.90;;;;;;5152099;27;45291;-52
2024/01/16 05:43:46;;;;;;;3.83;1.70;;;13.80;38.90;;;;;;5157244;27;45295;-52
2024/01/16 05:46:14;;;;;;;4.95;1.90;;;13.80;38.70;;;;;;5150337;27;44803;-51
2024/01/16 05:48:40;;;;;;;4.20;1.50;;;13.80;38.70;;;;;;5153359;27;45307;-51
2024/01/16 05:51:08;;;;;;;4.82;1.42;;;13.70;38.50;;;;;;5151301;27;45113;-51
2024/01/16 05:53:35;;;;;;;3.72;1.73;;;13.70;38.30;;;;;;5153806;27;46117;-52
2024/01/16 05:56:02;;;;;;;4.40;1.60;;;13.80;38.40;;;;;;5149035;27;45208;-52
2024/01/16 05:58:29;;;;;;;5.22;1.90;;;13.70;38.30;;;;;;5158524;27;45251;-52
2024/01/16 06:00:56;;;;;;;4.15;1.70;;;13.80;38.40;;;;;;5156160;27;45222;-52
2024/01/16 06:03:22;;;;;;;3.80;1.60;;;13.80;38.40;;;;;;5156373;27;45737;-51
2024/01/16 06:05:49;;;;;;;3.25;1.60;;;13.80;38.30;;;;;;5153580;27;45935;-51
2024/01/16 06:08:17;;;;;;;4.35;1.50;;;13.80;38.20;;;;;;5151089;27;45159;-51
2024/01/16 06:10:44;;;;;;;2.30;1.38;;;13.80;38.00;;;;;;5151030;27;45205;-51
2024/01/16 06:13:11;;;;;;;5.38;2.03;;;13.90;37.90;;;;;;5154885;27;46026;-51
2024/01/16 06:15:37;;;;;;;4.63;1.48;;;13.90;37.90;;;;;;5154531;27;45304;-52
2024/01/16 06:18:04;;;;;;;4.20;1.48;;;13.90;37.80;;;;;;5149710;27;45160;-52
2024/01/16 06:20:32;;;;;;;3.15;1.65;;;13.90;37.70;;;;;;5156432;27;45402;-52
2024/01/16 06:22:59;;;;;;;5.22;1.73;;;13.90;37.60;;;;;;5150231;27;46569;-52
2024/01/16 06:25:27;;;;;;;4.60;1.50;;;14.00;37.60;;;;;;5154341;27;45342;-52
2024/01/16 06:27:54;;;;;;;2.75;1.20;;;14.00;37.60;;;;;;5155992;27;45172;-52
2024/01/16 06:30:21;;;;;;;4.78;1.52;;;13.90;37.70;;;;;;5150895;27;44725;-52
2024/01/16 06:32:48;;;;;;;5.68;1.42;;;13.90;37.70;;;;;;5150985;27;44989;-52
2024/01/16 06:35:16;;;;;;;3.83;1.42;;;14.00;37.60;;;;;;5150447;27;45291;-52
2024/01/16 06:37:43;;;;;;;3.83;1.45;;;14.00;37.70;;;;;;5149324;27;45566;-52
2024/01/16 06:40:10;;;;;;;5.07;1.58;;;14.10;37.70;;;;;;5149632;27;45195;-52
2024/01/16 06:42:39;;;;;;;4.63;1.38;;;14.00;37.70;;;;;;5152710;27;46522;-52
2024/01/16 06:45:06;;;;;;;3.72;1.40;;;14.00;37.50;;;;;;5151322;27;45228;-52
2024/01/16 06:47:33;;;;;;;3.90;1.27;;;14.00;37.70;;;;;;5149114;27;44617;-52
2024/01/16 06:50:00;;;;;;;4.70;1.20;;;14.00;37.70;;;;;;5154719;27;45150;-52
2024/01/16 06:52:27;;;;;;;3.53;1.10;;;13.90;37.60;;;;;;5150999;27;47597;-52
2024/01/16 06:54:53;;;;;;;3.80;1.48;;;13.90;37.50;;;;;;5149950;27;44787;-52
2024/01/16 06:57:20;;;;;;;3.65;1.50;;;13.90;37.60;;;;;;5147816;27;44832;-51
2024/01/16 06:59:49;;;;;;;4.43;1.20;;;13.90;37.50;;;;;;5152860;27;45282;-52
2024/01/16 07:02:15;;;;;;;4.32;1.10;;;13.90;37.40;;;;;;5150843;27;47466;-52
2024/01/16 07:04:42;;;;;;;3.30;1.27;;;13.90;37.50;;;;;;5153262;27;45805;-52
2024/01/16 07:07:09;;;;;;;4.88;1.38;;;13.90;37.70;;;;;;5149557;27;45142;-52
2024/01/16 07:09:36;;;;;;;4.57;1.40;;;13.90;37.90;;;;;;5148525;27;45126;-52
2024/01/16 07:12:03;;;;;;;2.65;1.33;;;13.90;37.70;;;;;;5150752;27;46195;-52
2024/01/16 07:14:30;;;;;;;3.78;1.58;;;13.90;37.70;;;;;;5150056;27;45657;-52
2024/01/16 07:16:58;;;;;;;3.47;1.55;;;13.90;37.60;;;;;;5149058;27;45220;-52
2024/01/16 07:19:25;;;;;;;2.92;1.17;;;13.90;37.70;;;;;;5149877;27;45427;-52
2024/01/16 07:21:52;;;;;;;5.78;1.90;;;13.90;37.50;;;;;;5149976;27;46564;-52
2024/01/16 07:24:19;;;;;;;6.38;1.60;;;14.00;37.70;;;;;;5149321;27;45166;-52
2024/01/16 07:26:45;;;;;;;3.92;1.40;;;13.90;37.50;;;;;;5153575;27;45165;-51
2024/01/16 07:29:12;;;;;;;4.22;1.55;;;13.90;37.60;;;;;;5147544;27;45308;-51
2024/01/16 07:31:39;;;;;;;3.60;1.35;;;13.80;37.60;;;;;;5153124;27;47349;-52
2024/01/16 07:34:07;;;;;;;4.93;1.35;;;13.80;37.90;;;;;;5151392;27;45203;-52
2024/01/16 07:36:34;;;;;;;4.57;1.40;;;13.80;38.60;;;;;;5150692;27;45404;-51
2024/01/16 07:39:00;;;;;;;7.72;1.73;;;13.80;37.90;;;;;;5150623;27;45472;-52
2024/01/16 07:41:27;;;;;;;3.65;1.30;;;13.80;37.80;;;;;;5149858;27;45145;-51
2024/01/16 07:43:54;;;;;;;4.32;1.35;;;13.80;37.70;;;;;;5151413;27;46321;-52
2024/01/16 07:46:20;;;;;;;5.72;1.60;;;13.80;37.70;;;;;;5151966;27;45319;-52
2024/01/16 07:48:47;;;;;;;6.95;1.33;;;13.80;37.50;;;;;;5157900;27;45201;-52
2024/01/16 07:51:15;;;;;;;3.65;1.75;;;13.80;37.50;;;;;;5153796;27;45191;-51
2024/01/16 07:53:42;;;;;;;9.23;2.00;;;13.70;37.40;;;;;;5153335;27;44643;-51
2024/01/16 07:56:09;;;;;;;3.42;1.45;;;13.80;37.20;;;;;;5152898;27;45201;-51
2024/01/16 07:58:36;;;;;;;9.50;2.00;;;13.80;36.90;;;;;;5154359;27;45685;-51
2024/01/16 08:01:03;;;;;;;5.30;2.00;;;13.80;36.80;;;;;;5152781;27;45218;-51
2024/01/16 08:03:30;;;;;;;3.40;1.73;;;13.90;36.70;;;;;;5152438;27;45510;-51
2024/01/16 08:05:57;;;;;;;3.80;1.65;;;13.80;36.40;;;;;;5158943;27;45308;-52
2024/01/16 08:08:25;;;;;;;4.72;1.27;;;13.80;36.30;;;;;;5152747;27;45218;-52
2024/01/16 08:10:52;;;;;;;5.43;1.80;;;13.80;36.30;;;;;;5153542;27;46355;-51
2024/01/16 08:13:19;;;;;;;6.07;1.60;;;13.80;38.20;;;;;;5152982;27;45189;-51
2024/01/16 08:15:45;;;;;;;7.78;1.55;;;14.10;41.70;;;;;;5153253;27;45136;-52
2024/01/16 08:18:12;;;;;;;7.18;1.60;;;14.30;40.70;;;;;;5152971;27;45327;-52
2024/01/16 08:20:39;;;;;;;3.63;1.35;;;14.30;37.40;;;;;;5157181;27;48392;-52
2024/01/16 08:23:05;;;;;;;6.35;1.63;;;14.10;37.30;;;;;;5153424;27;45187;-52
2024/01/16 08:25:33;;;;;;;5.00;1.33;;;14.10;37.50;;;;;;5152459;27;45429;-52
2024/01/16 08:28:01;;;;;;;6.50;1.58;;;14.00;37.00;;;;;;5152060;27;45117;-52
2024/01/16 08:30:27;;;;;;;3.15;1.30;;;14.00;37.00;;;;;;5153160;27;47267;-52
2024/01/16 08:32:54;;;;;;;4.38;1.48;;;14.00;36.90;;;;;;5152437;27;45173;-52
2024/01/16 08:35:21;;;;;;;4.60;1.52;;;14.00;36.80;;;;;;5151142;27;45235;-52
2024/01/16 08:37:49;;;;;;;4.97;1.63;;;14.00;36.80;;;;;;5153371;27;45417;-52
2024/01/16 08:40:16;;;;;;;4.25;1.55;;;14.00;36.60;;;;;;5152412;27;47264;-52
2024/01/16 08:42:44;;;;;;;3.85;1.60;;;14.00;36.60;;;;;;5153499;27;45541;-52
2024/01/16 08:45:11;;;;;;;5.90;1.38;;;13.90;36.40;;;;;;5154367;27;45225;-52
2024/01/16 08:47:38;;;;;;;4.15;1.75;;;14.00;36.50;;;;;;5156053;27;45221;-52
2024/01/16 08:50:06;;;;;;;4.82;1.63;;;14.00;36.40;;;;;;5153678;27;46898;-52
2024/01/16 08:52:33;;;;;;;3.85;1.45;;;14.00;36.40;;;;;;5151422;27;45152;-52
2024/01/16 08:54:59;;;;;;;3.90;1.50;;;13.90;36.20;;;;;;5151142;27;45412;-52
2024/01/16 08:57:26;;;;;;;5.20;1.23;;;14.00;36.20;;;;;;5157363;27;45346;-52
2024/01/16 08:59:54;;;;;;;5.28;1.52;;;14.00;36.20;;;;;;5154026;27;47796;-52
2024/01/16 09:02:21;;;;;;;4.30;1.42;;;14.00;36.10;;;;;;5155220;27;46083;-52
2024/01/16 09:04:50;;;;;;;4.05;1.48;;;14.00;36.10;;;;;;5154993;27;45258;-52
2024/01/16 09:07:17;;;;;;;3.97;1.60;;;14.00;37.20;;;;;;5149445;27;45200;-52
2024/01/16 09:09:44;;;;;;;4.38;1.50;;;14.00;35.90;;;;;;5150996;27;47879;-52
2024/01/16 09:12:11;;;;;;;4.35;1.20;;;14.00;36.00;;;;;;5152847;27;45250;-52
2024/01/16 09:14:38;;;;;;;4.97;1.50;;;14.00;35.80;;;;;;5158815;27;45158;-52
2024/01/16 09:17:06;;;;;;;3.33;1.27;;;14.00;35.90;;;;;;5151512;27;45450;-52
2024/01/16 09:19:32;;;;;;;3.92;1.40;;;14.00;35.70;;;;;;5155886;27;46351;-52
2024/01/16 09:21:59;;;;;;;3.72;1.30;;;14.00;35.50;;;;;;5156269;27;45087;-52
2024/01/16 09:24:26;;;;;;;6.63;1.58;;;14.10;35.70;;;;;;5161156;27;45249;-52
2024/01/16 09:26:53;;;;;;;4.35;1.65;;;14.10;35.80;;;;;;5152897;27;45214;-52
2024/01/16 09:29:21;;;;;;;5.60;1.85;;;14.10;35.70;;;;;;5150454;27;47235;-52
2024/01/16 09:31:48;;;;;;;2.40;1.25;;;14.00;35.60;;;;;;5154148;27;45229;-52
2024/01/16 09:34:17;;;;;;;3.47;1.25;;;14.00;35.40;;;;;;5146836;27;45097;-52
2024/01/16 09:36:44;;;;;;;2.97;1.30;;;14.00;35.60;;;;;;5148473;27;45197;-51
2024/01/16 09:39:11;;;;;;;4.53;1.67;;;14.00;35.60;;;;;;5150824;27;46033;-52
2024/01/16 09:41:38;;;;;;;4.10;1.58;;;14.10;35.70;;;;;;5154442;27;45485;-52
2024/01/16 09:44:05;;;;;;;5.05;1.40;;;14.00;35.50;;;;;;5152713;27;45277;-52
2024/01/16 09:46:32;;;;;;;3.05;1.30;;;14.00;35.50;;;;;;5152610;27;45093;-52
2024/01/16 09:49:01;;;;;;;3.90;1.60;;;14.10;35.50;;;;;;5155054;27;46503;-52
2024/01/16 09:51:30;;;;;;;3.13;1.45;;;14.10;35.70;;;;;;5153177;27;45173;-52
2024/01/16 09:53:56;;;;;;;4.22;1.58;;;14.20;35.50;;;;;;5149772;27;45360;-52
2024/01/16 09:56:24;;;;;;;4.13;1.45;;;14.20;36.50;;;;;;5149443;27;45194;-53
2024/01/16 09:58:59;;;;;;;3.70;1.40;;;14.30;36.20;;;;;;5150664;27;45315;-52
2024/01/16 10:01:28;;;;;;;3.35;1.23;;;14.20;36.20;;;;;;5151598;27;45274;-52
2024/01/16 10:03:54;;;;;;;3.83;1.30;;;14.20;36.00;;;;;;5151054;27;45110;-52
2024/01/16 10:06:22;;;;;;;5.55;1.33;;;14.20;35.90;;;;;;5151997;27;45206;-53
2024/01/16 10:08:50;;;;;;;5.45;2.22;;;14.10;35.80;;;;;;5149948;27;47710;-52
2024/01/16 10:11:17;;;;;;;5.35;1.52;;;14.00;35.80;;;;;;5149736;27;44719;-52
2024/01/16 10:13:45;;;;;;;2.92;1.20;;;13.90;35.90;;;;;;5151055;27;45240;-52
2024/01/16 10:16:12;;;;;;;3.03;1.40;;;13.90;36.00;;;;;;5147411;27;45169;-52
2024/01/16 10:18:39;;;;;;;3.25;1.15;;;13.90;36.40;;;;;;5151067;27;46238;-51
2024/01/16 10:21:07;;;;;;;5.68;1.63;;;13.90;36.00;;;;;;5149655;27;45253;-52
2024/01/16 10:23:34;;;;;;;4.13;1.40;;;13.90;36.10;;;;;;5148780;27;45266;-51
2024/01/16 10:26:09;;;;;;;4.97;1.33;;;13.90;36.00;;;;;;5150321;27;45159;-52
2024/01/16 10:28:37;;;;;;;3.75;1.65;;;13.90;35.90;;;;;;5152062;27;45451;-52
2024/01/16 10:31:04;;;;;;;4.10;1.48;;;13.90;35.90;;;;;;5152818;27;45184;-52
2024/01/16 10:33:31;;;;;;;3.25;1.45;;;13.90;35.70;;;;;;5149166;27;45317;-52
2024/01/16 10:36:10;;;;;;;4.55;1.73;;;13.90;35.80;;;;;;5151752;27;45299;-52
2024/01/16 10:38:38;;;;;;;4.35;1.70;;;13.80;35.70;;;;;;5148123;27;45290;-52
2024/01/16 10:41:12;;;;;;;5.05;1.77;;;13.80;35.80;;;;;;5150887;27;45368;-51
2024/01/16 10:43:39;;;;;;;3.15;1.38;;;13.90;35.70;;;;;;5152892;27;45431;-52
2024/01/16 10:46:11;;;;;;;5.25;1.73;;;13.90;35.60;;;;;;5149840;27;45301;-52
2024/01/16 10:48:39;;;;;;;4.43;1.60;;;13.90;35.50;;;;;;5153593;27;45390;-52
2024/01/16 10:51:08;;;;;;;4.85;1.63;;;13.90;35.50;;;;;;5152949;27;45120;-52
2024/01/16 10:53:35;;;;;;;5.68;1.98;;;13.90;35.50;;;;;;5150607;27;45175;-52
2024/01/16 10:56:04;;;;;;;6.63;1.83;;;13.90;35.60;;;;;;5149977;27;45142;-52
2024/01/16 10:58:32;;;;;;;5.40;1.88;;;14.00;35.50;;;;;;5152398;27;45209;-52
2024/01/16 11:01:04;;;;;;;5.60;1.85;;;13.90;35.30;;;;;;5152078;27;45344;-52
2024/01/16 11:03:37;;;;;;;5.15;1.80;;;13.90;35.20;;;;;;5150127;27;45193;-52
2024/01/16 11:06:07;;;;;;;2.92;1.50;;;13.90;35.20;;;;;;5151253;27;45725;-52
2024/01/16 11:08:36;;;;;;;4.63;1.77;;;14.00;35.50;;;;;;5151866;27;46343;-52
2024/01/16 11:11:04;;;;;;;4.57;1.45;;;13.90;35.50;;;;;;5154083;27;45612;-52
2024/01/16 11:13:35;;;;;;;3.53;1.45;;;13.90;35.40;;;;;;5152000;27;45657;-52
2024/01/16 11:16:03;;;;;;;4.28;1.52;;;13.90;35.40;;;;;;5149409;27;45084;-52
2024/01/16 11:18:31;;;;;;;4.10;1.60;;;13.90;35.50;;;;;;5154302;27;46174;-52
2024/01/16 11:20:59;;;;;;;4.45;1.95;;;13.90;35.50;;;;;;5153521;27;45298;-52
2024/01/16 11:23:27;;;;;;;3.97;1.70;;;13.90;36.70;;;;;;5152071;27;45286;-52
2024/01/16 11:25:54;;;;;;;5.13;1.50;;;13.90;35.50;;;;;;5152251;27;45306;-52
2024/01/16 11:28:20;;;;;;;4.38;1.50;;;13.90;35.40;;;;;;5153301;27;45431;-52
2024/01/16 11:30:49;;;;;;;4.50;1.95;;;14.00;35.40;;;;;;5158229;27;45338;-52
2024/01/16 11:33:43;;;;;;;6.38;1.70;;;13.90;35.30;;;;;;5152432;27;45135;-52
2024/01/16 11:36:44;;;;;;;9.52;1.70;;;14.00;35.20;;;;;;5155345;27;45307;-52
2024/01/16 11:39:17;;;;;;;3.58;1.52;;;14.10;35.20;;;;;;5155888;27;47742;-51
2024/01/16 11:41:51;;;;;;;6.50;1.70;;;14.10;35.20;;;;;;5156664;27;45361;-51
2024/01/16 11:44:43;;;;;;;3.45;1.50;;;14.10;35.20;;;;;;5154132;27;45183;-52
2024/01/16 11:47:17;;;;;;;5.80;1.58;;;14.00;35.10;;;;;;5151631;27;44732;-52
2024/01/16 11:49:44;;;;;;;3.42;1.42;;;14.00;38.10;;;;;;5150600;27;45338;-51
2024/01/16 11:52:12;;;;;;;4.25;1.50;;;14.10;35.50;;;;;;5153245;27;45232;-52
2024/01/16 11:54:40;;;;;;;3.00;1.45;;;14.10;35.30;;;;;;5151795;27;45235;-52
2024/01/16 11:57:36;;;;;;;3.13;1.33;;;14.10;35.00;;;;;;5152529;27;45219;-52
2024/01/16 12:00:12;;;;;;;3.53;1.38;;;14.20;37.20;;;;;;5154462;27;47433;-52
2024/01/16 12:02:53;;;;;;;4.18;1.42;;;14.20;36.00;;;;;;5155442;27;44720;-52
2024/01/16 12:05:19;;;;;;;6.18;1.60;;;14.10;35.70;;;;;;5153172;27;44687;-52
2024/01/16 12:07:49;;;;;;;3.33;1.10;;;14.10;36.90;;;;;;5155352;27;45129;-53
2024/01/16 12:10:16;;;;;;;8.20;2.03;;;14.00;35.50;;;;;;5150985;27;45195;-52
2024/01/16 12:12:43;;;;;;;6.70;1.50;;;14.20;38.60;;;;;;5156365;27;45174;-52
2024/01/16 12:15:16;;;;;;;5.47;1.60;;;14.30;36.40;;;;;;5150629;27;44947;-52
2024/01/16 12:17:57;;;;;;;5.80;1.52;;;14.40;35.90;;;;;;5155719;27;45165;-52
2024/01/16 12:20:25;;;;;;;3.97;1.70;;;14.40;36.00;;;;;;5152759;27;46021;-52
2024/01/16 12:23:00;;;;;;;3.00;1.10;;;14.50;35.90;;;;;;5151485;27;45216;-52
2024/01/16 12:25:27;;;;;;;7.95;1.48;;;14.50;35.70;;;;;;5150486;27;45116;-52
2024/01/16 12:27:58;;;;;;;3.90;1.55;;;14.60;35.60;;;;;;5153627;27;45352;-52
2024/01/16 12:30:28;;;;;;;4.70;1.55;;;14.60;35.10;;;;;;5155118;27;47294;-52
2024/01/16 12:33:04;;;;;;;4.25;1.33;;;14.60;35.10;;;;;;5151730;27;45333;-52
2024/01/16 12:35:31;;;;;;;4.50;1.50;;;14.60;35.00;;;;;;5154204;27;45160;-52
2024/01/16 12:38:01;;;;;;;3.97;1.30;;;14.60;35.10;;;;;;5150928;27;44918;-52
2024/01/16 12:40:28;;;;;;;5.43;1.60;;;14.60;34.90;;;;;;5152089;27;46375;-52
2024/01/16 12:42:55;;;;;;;2.75;1.17;;;14.60;34.80;;;;;;5150173;27;45241;-52
2024/01/16 12:45:23;;;;;;;3.85;1.55;;;14.60;34.70;;;;;;5153986;27;45129;-52
2024/01/16 12:47:53;;;;;;;5.35;1.80;;;14.70;34.80;;;;;;5151939;27;45117;-52
2024/01/16 12:50:23;;;;;;;4.13;1.73;;;14.70;34.60;;;;;;5151045;27;46524;-52
2024/01/16 12:52:50;;;;;;;6.28;1.35;;;14.70;34.40;;;;;;5152732;27;45912;-52